sensor_id;sensor_type;location;lat;lon;timestamp;P1;durP1;ratioP1;P2;durP2;ratioP2
27957;SDS011;15295;42.658;23.374;2023-03-01T00:00:18;8.23;;;5.40;;
27957;SDS011;15295;42.658;23.374;2023-03-01T00:05:17;9.43;;;5.93;;
27957;SDS011;15295;42.658;23.374;2023-03-01T00:07:46;8.30;;;5.40;;
27957;SDS011;15295;42.658;23.374;2023-03-01T00:10:11;5.80;;;4.32;;
27957;SDS011;15295;42.658;23.374;2023-03-01T00:12:42;8.90;;;5.43;;
27957;SDS011;15295;42.658;23.374;2023-03-01T00:15:07;7.43;;;5.30;;
27957;SDS011;15295;42.658;23.374;2023-03-01T00:17:39;6.45;;;4.55;;
27957;SDS011;15295;42.658;23.374;2023-03-01T00:20:05;5.82;;;4.18;;
27957;SDS011;15295;42.658;23.374;2023-03-01T00:22:35;6.38;;;4.32;;
27957;SDS011;15295;42.658;23.374;2023-03-01T00:25:04;5.70;;;4.32;;
27957;SDS011;15295;42.658;23.374;2023-03-01T00:27:36;6.82;;;4.22;;
27957;SDS011;15295;42.658;23.374;2023-03-01T00:30:03;6.15;;;4.15;;
27957;SDS011;15295;42.658;23.374;2023-03-01T00:32:28;5.35;;;3.85;;
27957;SDS011;15295;42.658;23.374;2023-03-01T00:34:54;6.10;;;4.22;;
27957;SDS011;15295;42.658;23.374;2023-03-01T00:37:36;5.90;;;4.07;;
27957;SDS011;15295;42.658;23.374;2023-03-01T00:40:07;6.63;;;3.92;;
27957;SDS011;15295;42.658;23.374;2023-03-01T00:42:41;4.97;;;3.65;;
27957;SDS011;15295;42.658;23.374;2023-03-01T00:45:07;8.55;;;4.47;;
27957;SDS011;15295;42.658;23.374;2023-03-01T00:47:43;6.28;;;3.92;;
27957;SDS011;15295;42.658;23.374;2023-03-01T00:50:10;6.03;;;4.25;;
27957;SDS011;15295;42.658;23.374;2023-03-01T00:52:36;7.25;;;4.18;;
27957;SDS011;15295;42.658;23.374;2023-03-01T00:55:02;8.35;;;4.10;;
27957;SDS011;15295;42.658;23.374;2023-03-01T00:57:31;4.85;;;3.55;;
27957;SDS011;15295;42.658;23.374;2023-03-01T00:59:57;6.13;;;3.45;;
27957;SDS011;15295;42.658;23.374;2023-03-01T01:02:22;5.82;;;3.65;;
27957;SDS011;15295;42.658;23.374;2023-03-01T01:04:48;5.00;;;3.63;;
27957;SDS011;15295;42.658;23.374;2023-03-01T01:07:22;5.85;;;3.75;;
27957;SDS011;15295;42.658;23.374;2023-03-01T01:09:49;5.03;;;3.65;;
27957;SDS011;15295;42.658;23.374;2023-03-01T01:12:14;5.05;;;3.65;;
27957;SDS011;15295;42.658;23.374;2023-03-01T01:14:41;5.13;;;3.45;;
27957;SDS011;15295;42.658;23.374;2023-03-01T01:17:06;4.60;;;3.20;;
27957;SDS011;15295;42.658;23.374;2023-03-01T01:19:33;4.25;;;3.05;;
27957;SDS011;15295;42.658;23.374;2023-03-01T01:22:01;3.45;;;2.70;;
27957;SDS011;15295;42.658;23.374;2023-03-01T01:24:30;5.45;;;3.00;;
27957;SDS011;15295;42.658;23.374;2023-03-01T01:26:55;4.85;;;3.17;;
27957;SDS011;15295;42.658;23.374;2023-03-01T01:29:21;3.47;;;2.75;;
27957;SDS011;15295;42.658;23.374;2023-03-01T01:31:48;3.75;;;2.88;;
27957;SDS011;15295;42.658;23.374;2023-03-01T01:34:17;3.78;;;2.78;;
27957;SDS011;15295;42.658;23.374;2023-03-01T01:36:51;3.40;;;2.88;;
27957;SDS011;15295;42.658;23.374;2023-03-01T01:39:39;3.88;;;2.33;;
27957;SDS011;15295;42.658;23.374;2023-03-01T01:42:11;2.90;;;2.35;;
27957;SDS011;15295;42.658;23.374;2023-03-01T01:44:48;2.72;;;2.40;;
27957;SDS011;15295;42.658;23.374;2023-03-01T01:47:53;2.60;;;2.28;;
27957;SDS011;15295;42.658;23.374;2023-03-01T01:50:48;2.90;;;2.55;;
27957;SDS011;15295;42.658;23.374;2023-03-01T01:53:21;3.10;;;2.80;;
27957;SDS011;15295;42.658;23.374;2023-03-01T01:55:48;3.38;;;2.47;;
27957;SDS011;15295;42.658;23.374;2023-03-01T01:58:18;3.28;;;2.60;;
27957;SDS011;15295;42.658;23.374;2023-03-01T02:00:46;2.60;;;2.40;;
27957;SDS011;15295;42.658;23.374;2023-03-01T02:03:14;5.15;;;2.60;;
27957;SDS011;15295;42.658;23.374;2023-03-01T02:05:49;3.75;;;2.85;;
27957;SDS011;15295;42.658;23.374;2023-03-01T02:08:30;3.97;;;2.58;;
27957;SDS011;15295;42.658;23.374;2023-03-01T02:10:58;3.22;;;2.67;;
27957;SDS011;15295;42.658;23.374;2023-03-01T02:13:25;2.67;;;2.47;;
27957;SDS011;15295;42.658;23.374;2023-03-01T02:15:51;2.80;;;2.40;;
27957;SDS011;15295;42.658;23.374;2023-03-01T02:18:18;2.50;;;2.28;;
27957;SDS011;15295;42.658;23.374;2023-03-01T02:23:46;3.10;;;2.63;;
27957;SDS011;15295;42.658;23.374;2023-03-01T02:26:20;2.90;;;2.55;;
27957;SDS011;15295;42.658;23.374;2023-03-01T02:28:46;3.00;;;2.67;;
27957;SDS011;15295;42.658;23.374;2023-03-01T02:31:14;2.90;;;2.60;;
27957;SDS011;15295;42.658;23.374;2023-03-01T02:34:02;3.83;;;2.50;;
27957;SDS011;15295;42.658;23.374;2023-03-01T02:36:33;3.13;;;2.72;;
27957;SDS011;15295;42.658;23.374;2023-03-01T02:39:05;4.05;;;2.92;;
27957;SDS011;15295;42.658;23.374;2023-03-01T02:41:39;4.00;;;3.20;;
27957;SDS011;15295;42.658;23.374;2023-03-01T02:44:14;3.63;;;3.10;;
27957;SDS011;15295;42.658;23.374;2023-03-01T02:46:48;7.45;;;3.20;;
27957;SDS011;15295;42.658;23.374;2023-03-01T02:49:35;4.20;;;3.20;;
27957;SDS011;15295;42.658;23.374;2023-03-01T02:52:46;4.22;;;3.20;;
27957;SDS011;15295;42.658;23.374;2023-03-01T02:55:55;4.15;;;3.25;;
27957;SDS011;15295;42.658;23.374;2023-03-01T02:58:28;5.55;;;3.92;;
27957;SDS011;15295;42.658;23.374;2023-03-01T03:01:12;4.25;;;3.75;;
27957;SDS011;15295;42.658;23.374;2023-03-01T03:03:49;5.13;;;3.80;;
27957;SDS011;15295;42.658;23.374;2023-03-01T03:06:25;6.15;;;4.15;;
27957;SDS011;15295;42.658;23.374;2023-03-01T03:09:06;5.13;;;3.85;;
27957;SDS011;15295;42.658;23.374;2023-03-01T03:11:35;5.85;;;4.50;;
27957;SDS011;15295;42.658;23.374;2023-03-01T03:14:01;6.25;;;4.80;;
27957;SDS011;15295;42.658;23.374;2023-03-01T03:16:43;5.55;;;4.03;;
27957;SDS011;15295;42.658;23.374;2023-03-01T03:19:13;5.28;;;3.88;;
27957;SDS011;15295;42.658;23.374;2023-03-01T03:21:44;4.93;;;3.60;;
27957;SDS011;15295;42.658;23.374;2023-03-01T03:24:10;4.43;;;3.42;;
27957;SDS011;15295;42.658;23.374;2023-03-01T03:29:19;4.38;;;3.40;;
27957;SDS011;15295;42.658;23.374;2023-03-01T03:31:44;6.47;;;3.65;;
27957;SDS011;15295;42.658;23.374;2023-03-01T03:34:09;3.67;;;2.92;;
27957;SDS011;15295;42.658;23.374;2023-03-01T03:36:42;4.05;;;3.15;;
27957;SDS011;15295;42.658;23.374;2023-03-01T03:39:23;4.03;;;3.20;;
27957;SDS011;15295;42.658;23.374;2023-03-01T03:41:49;4.53;;;2.88;;
27957;SDS011;15295;42.658;23.374;2023-03-01T03:44:14;4.43;;;3.28;;
27957;SDS011;15295;42.658;23.374;2023-03-01T03:46:57;4.57;;;3.15;;
27957;SDS011;15295;42.658;23.374;2023-03-01T03:49:23;4.88;;;3.58;;
27957;SDS011;15295;42.658;23.374;2023-03-01T03:51:54;4.90;;;3.38;;
27957;SDS011;15295;42.658;23.374;2023-03-01T03:54:20;3.97;;;2.90;;
27957;SDS011;15295;42.658;23.374;2023-03-01T03:59:21;3.95;;;2.92;;
27957;SDS011;15295;42.658;23.374;2023-03-01T04:01:46;4.88;;;3.03;;
27957;SDS011;15295;42.658;23.374;2023-03-01T04:04:12;4.38;;;2.95;;
27957;SDS011;15295;42.658;23.374;2023-03-01T04:06:38;3.75;;;2.67;;
27957;SDS011;15295;42.658;23.374;2023-03-01T04:09:03;4.05;;;3.00;;
27957;SDS011;15295;42.658;23.374;2023-03-01T04:11:32;3.90;;;2.90;;
27957;SDS011;15295;42.658;23.374;2023-03-01T04:14:03;4.88;;;3.15;;
27957;SDS011;15295;42.658;23.374;2023-03-01T04:16:29;5.70;;;3.47;;
27957;SDS011;15295;42.658;23.374;2023-03-01T04:18:55;4.70;;;3.25;;
27957;SDS011;15295;42.658;23.374;2023-03-01T04:21:21;4.35;;;3.35;;
27957;SDS011;15295;42.658;23.374;2023-03-01T04:23:47;5.80;;;3.05;;
27957;SDS011;15295;42.658;23.374;2023-03-01T04:26:13;4.53;;;3.22;;
27957;SDS011;15295;42.658;23.374;2023-03-01T04:28:39;4.63;;;3.63;;
27957;SDS011;15295;42.658;23.374;2023-03-01T04:34:01;4.80;;;3.55;;
27957;SDS011;15295;42.658;23.374;2023-03-01T04:36:28;5.05;;;3.65;;
27957;SDS011;15295;42.658;23.374;2023-03-01T04:38:55;5.20;;;3.13;;
27957;SDS011;15295;42.658;23.374;2023-03-01T04:44:08;5.13;;;3.35;;
27957;SDS011;15295;42.658;23.374;2023-03-01T04:46:34;7.13;;;3.92;;
27957;SDS011;15295;42.658;23.374;2023-03-01T04:49:02;5.13;;;3.20;;
27957;SDS011;15295;42.658;23.374;2023-03-01T04:51:32;4.63;;;3.25;;
27957;SDS011;15295;42.658;23.374;2023-03-01T04:53:58;5.78;;;3.35;;
27957;SDS011;15295;42.658;23.374;2023-03-01T04:56:27;4.97;;;3.22;;
27957;SDS011;15295;42.658;23.374;2023-03-01T04:58:56;4.05;;;2.90;;
27957;SDS011;15295;42.658;23.374;2023-03-01T05:04:22;4.97;;;2.42;;
27957;SDS011;15295;42.658;23.374;2023-03-01T05:06:52;4.07;;;2.83;;
27957;SDS011;15295;42.658;23.374;2023-03-01T05:09:23;5.47;;;3.05;;
27957;SDS011;15295;42.658;23.374;2023-03-01T05:11:53;4.55;;;2.80;;
27957;SDS011;15295;42.658;23.374;2023-03-01T05:14:21;4.65;;;2.70;;
27957;SDS011;15295;42.658;23.374;2023-03-01T05:16:53;3.90;;;2.50;;
27957;SDS011;15295;42.658;23.374;2023-03-01T05:19:44;5.53;;;2.75;;
27957;SDS011;15295;42.658;23.374;2023-03-01T05:22:20;3.70;;;2.85;;
27957;SDS011;15295;42.658;23.374;2023-03-01T05:24:54;4.70;;;3.03;;
27957;SDS011;15295;42.658;23.374;2023-03-01T05:27:31;3.90;;;2.88;;
27957;SDS011;15295;42.658;23.374;2023-03-01T05:29:58;4.70;;;3.25;;
27957;SDS011;15295;42.658;23.374;2023-03-01T05:32:45;5.30;;;3.20;;
27957;SDS011;15295;42.658;23.374;2023-03-01T05:35:23;5.53;;;3.13;;
27957;SDS011;15295;42.658;23.374;2023-03-01T05:37:55;5.25;;;3.33;;
27957;SDS011;15295;42.658;23.374;2023-03-01T05:40:25;4.45;;;3.25;;
27957;SDS011;15295;42.658;23.374;2023-03-01T05:47:50;6.32;;;4.43;;
27957;SDS011;15295;42.658;23.374;2023-03-01T05:50:18;5.53;;;3.42;;
27957;SDS011;15295;42.658;23.374;2023-03-01T05:53:01;6.10;;;3.35;;
27957;SDS011;15295;42.658;23.374;2023-03-01T05:55:55;6.45;;;3.45;;
27957;SDS011;15295;42.658;23.374;2023-03-01T05:58:42;5.30;;;3.00;;
27957;SDS011;15295;42.658;23.374;2023-03-01T06:04:06;5.07;;;3.15;;
27957;SDS011;15295;42.658;23.374;2023-03-01T06:11:55;6.22;;;4.30;;
27957;SDS011;15295;42.658;23.374;2023-03-01T06:14:53;6.05;;;3.45;;
27957;SDS011;15295;42.658;23.374;2023-03-01T06:33:13;10.25;;;4.40;;
27957;SDS011;15295;42.658;23.374;2023-03-01T06:36:22;5.75;;;4.20;;
27957;SDS011;15295;42.658;23.374;2023-03-01T06:38:54;7.85;;;4.63;;
27957;SDS011;15295;42.658;23.374;2023-03-01T06:41:59;5.47;;;3.83;;
27957;SDS011;15295;42.658;23.374;2023-03-01T06:52:41;8.07;;;3.97;;
27957;SDS011;15295;42.658;23.374;2023-03-01T06:55:10;6.60;;;3.22;;
27957;SDS011;15295;42.658;23.374;2023-03-01T06:57:53;4.80;;;3.08;;
27957;SDS011;15295;42.658;23.374;2023-03-01T07:00:21;4.50;;;3.13;;
27957;SDS011;15295;42.658;23.374;2023-03-01T07:02:51;5.28;;;3.33;;
27957;SDS011;15295;42.658;23.374;2023-03-01T07:05:38;6.35;;;3.50;;
27957;SDS011;15295;42.658;23.374;2023-03-01T07:08:27;8.43;;;4.00;;
27957;SDS011;15295;42.658;23.374;2023-03-01T07:10:56;5.97;;;4.00;;
27957;SDS011;15295;42.658;23.374;2023-03-01T07:13:24;5.40;;;3.20;;
27957;SDS011;15295;42.658;23.374;2023-03-01T07:15:50;6.90;;;3.15;;
27957;SDS011;15295;42.658;23.374;2023-03-01T07:18:16;6.28;;;3.88;;
27957;SDS011;15295;42.658;23.374;2023-03-01T07:20:42;9.63;;;4.80;;
27957;SDS011;15295;42.658;23.374;2023-03-01T07:23:08;13.27;;;4.85;;
27957;SDS011;15295;42.658;23.374;2023-03-01T07:25:34;30.88;;;6.18;;
27957;SDS011;15295;42.658;23.374;2023-03-01T07:28:00;13.18;;;6.22;;
27957;SDS011;15295;42.658;23.374;2023-03-01T07:30:25;11.77;;;4.13;;
27957;SDS011;15295;42.658;23.374;2023-03-01T07:32:54;8.43;;;4.10;;
27957;SDS011;15295;42.658;23.374;2023-03-01T07:35:22;11.57;;;4.70;;
27957;SDS011;15295;42.658;23.374;2023-03-01T07:37:48;6.53;;;3.47;;
27957;SDS011;15295;42.658;23.374;2023-03-01T07:40:14;6.15;;;2.90;;
27957;SDS011;15295;42.658;23.374;2023-03-01T07:42:44;5.55;;;2.95;;
27957;SDS011;15295;42.658;23.374;2023-03-01T07:45:11;5.90;;;2.97;;
27957;SDS011;15295;42.658;23.374;2023-03-01T07:47:39;7.47;;;3.75;;
27957;SDS011;15295;42.658;23.374;2023-03-01T07:50:05;6.70;;;2.40;;
27957;SDS011;15295;42.658;23.374;2023-03-01T07:52:31;3.25;;;2.22;;
27957;SDS011;15295;42.658;23.374;2023-03-01T07:54:56;4.97;;;2.47;;
27957;SDS011;15295;42.658;23.374;2023-03-01T07:57:22;7.22;;;2.72;;
27957;SDS011;15295;42.658;23.374;2023-03-01T07:59:48;3.13;;;2.25;;
27957;SDS011;15295;42.658;23.374;2023-03-01T08:02:14;9.95;;;4.57;;
27957;SDS011;15295;42.658;23.374;2023-03-01T08:04:40;7.05;;;3.17;;
27957;SDS011;15295;42.658;23.374;2023-03-01T08:07:06;3.55;;;2.30;;
27957;SDS011;15295;42.658;23.374;2023-03-01T08:09:31;3.45;;;2.22;;
27957;SDS011;15295;42.658;23.374;2023-03-01T08:11:59;4.97;;;2.25;;
27957;SDS011;15295;42.658;23.374;2023-03-01T08:14:25;8.90;;;2.70;;
27957;SDS011;15295;42.658;23.374;2023-03-01T08:16:50;8.52;;;2.97;;
27957;SDS011;15295;42.658;23.374;2023-03-01T08:19:16;5.68;;;3.10;;
27957;SDS011;15295;42.658;23.374;2023-03-01T08:21:42;3.80;;;2.85;;
27957;SDS011;15295;42.658;23.374;2023-03-01T08:24:07;3.25;;;2.35;;
27957;SDS011;15295;42.658;23.374;2023-03-01T08:26:35;7.53;;;3.30;;
27957;SDS011;15295;42.658;23.374;2023-03-01T08:29:01;6.90;;;3.55;;
27957;SDS011;15295;42.658;23.374;2023-03-01T08:31:28;4.97;;;3.42;;
27957;SDS011;15295;42.658;23.374;2023-03-01T08:34:01;6.27;;;3.00;;
27957;SDS011;15295;42.658;23.374;2023-03-01T08:36:31;4.60;;;3.25;;
27957;SDS011;15295;42.658;23.374;2023-03-01T08:38:59;13.75;;;6.65;;
27957;SDS011;15295;42.658;23.374;2023-03-01T08:41:25;7.90;;;3.97;;
27957;SDS011;15295;42.658;23.374;2023-03-01T08:43:51;8.32;;;4.50;;
27957;SDS011;15295;42.658;23.374;2023-03-01T08:46:17;11.90;;;6.78;;
27957;SDS011;15295;42.658;23.374;2023-03-01T08:48:43;6.25;;;4.20;;
27957;SDS011;15295;42.658;23.374;2023-03-01T08:51:13;11.63;;;4.45;;
27957;SDS011;15295;42.658;23.374;2023-03-01T08:53:40;6.82;;;4.35;;
27957;SDS011;15295;42.658;23.374;2023-03-01T08:56:06;8.18;;;5.53;;
27957;SDS011;15295;42.658;23.374;2023-03-01T08:58:33;7.03;;;4.85;;
27957;SDS011;15295;42.658;23.374;2023-03-01T09:00:58;9.60;;;4.55;;
27957;SDS011;15295;42.658;23.374;2023-03-01T09:03:25;5.38;;;3.88;;
27957;SDS011;15295;42.658;23.374;2023-03-01T09:05:51;12.23;;;6.43;;
27957;SDS011;15295;42.658;23.374;2023-03-01T09:08:17;8.48;;;4.05;;
27957;SDS011;15295;42.658;23.374;2023-03-01T09:10:43;7.30;;;3.80;;
27957;SDS011;15295;42.658;23.374;2023-03-01T09:13:08;7.78;;;3.47;;
27957;SDS011;15295;42.658;23.374;2023-03-01T09:15:36;6.38;;;3.63;;
27957;SDS011;15295;42.658;23.374;2023-03-01T09:18:02;5.65;;;3.35;;
27957;SDS011;15295;42.658;23.374;2023-03-01T09:20:28;15.43;;;6.15;;
27957;SDS011;15295;42.658;23.374;2023-03-01T09:22:55;18.45;;;7.22;;
27957;SDS011;15295;42.658;23.374;2023-03-01T09:25:21;7.93;;;3.85;;
27957;SDS011;15295;42.658;23.374;2023-03-01T09:27:46;6.93;;;3.80;;
27957;SDS011;15295;42.658;23.374;2023-03-01T09:30:12;9.15;;;3.63;;
27957;SDS011;15295;42.658;23.374;2023-03-01T09:32:37;5.57;;;2.53;;
27957;SDS011;15295;42.658;23.374;2023-03-01T09:35:07;6.13;;;2.50;;
27957;SDS011;15295;42.658;23.374;2023-03-01T09:37:34;3.25;;;1.58;;
27957;SDS011;15295;42.658;23.374;2023-03-01T09:40:00;4.05;;;2.35;;
27957;SDS011;15295;42.658;23.374;2023-03-01T09:42:27;2.92;;;1.70;;
27957;SDS011;15295;42.658;23.374;2023-03-01T09:44:58;2.30;;;2.10;;
27957;SDS011;15295;42.658;23.374;2023-03-01T09:47:29;3.00;;;1.90;;
27957;SDS011;15295;42.658;23.374;2023-03-01T09:50:02;2.88;;;2.15;;
27957;SDS011;15295;42.658;23.374;2023-03-01T09:55:50;5.05;;;1.75;;
27957;SDS011;15295;42.658;23.374;2023-03-01T10:06:36;2.55;;;2.10;;
27957;SDS011;15295;42.658;23.374;2023-03-01T10:09:13;5.90;;;2.25;;
27957;SDS011;15295;42.658;23.374;2023-03-01T10:11:43;3.53;;;2.35;;
27957;SDS011;15295;42.658;23.374;2023-03-01T10:16:55;5.80;;;2.05;;
27957;SDS011;15295;42.658;23.374;2023-03-01T10:19:31;4.40;;;2.28;;
27957;SDS011;15295;42.658;23.374;2023-03-01T10:22:03;4.90;;;2.20;;
27957;SDS011;15295;42.658;23.374;2023-03-01T10:24:40;5.38;;;2.55;;
27957;SDS011;15295;42.658;23.374;2023-03-01T10:27:17;3.33;;;2.50;;
27957;SDS011;15295;42.658;23.374;2023-03-01T10:29:50;4.50;;;2.63;;
27957;SDS011;15295;42.658;23.374;2023-03-01T10:32:21;2.70;;;2.03;;
27957;SDS011;15295;42.658;23.374;2023-03-01T10:34:47;3.78;;;2.38;;
27957;SDS011;15295;42.658;23.374;2023-03-01T10:37:14;2.70;;;2.08;;
27957;SDS011;15295;42.658;23.374;2023-03-01T10:40:14;4.30;;;1.95;;
27957;SDS011;15295;42.658;23.374;2023-03-01T10:42:46;5.50;;;2.35;;
27957;SDS011;15295;42.658;23.374;2023-03-01T10:45:19;3.92;;;2.50;;
27957;SDS011;15295;42.658;23.374;2023-03-01T10:48:04;3.97;;;2.53;;
27957;SDS011;15295;42.658;23.374;2023-03-01T10:50:35;4.53;;;2.60;;
27957;SDS011;15295;42.658;23.374;2023-03-01T10:53:03;3.20;;;2.50;;
27957;SDS011;15295;42.658;23.374;2023-03-01T10:58:19;2.97;;;2.22;;
27957;SDS011;15295;42.658;23.374;2023-03-01T11:00:51;4.93;;;3.08;;
27957;SDS011;15295;42.658;23.374;2023-03-01T11:03:20;4.65;;;2.60;;
27957;SDS011;15295;42.658;23.374;2023-03-01T11:05:58;3.45;;;2.40;;
27957;SDS011;15295;42.658;23.374;2023-03-01T11:08:31;3.88;;;2.85;;
27957;SDS011;15295;42.658;23.374;2023-03-01T11:11:04;5.53;;;2.67;;
27957;SDS011;15295;42.658;23.374;2023-03-01T11:13:55;3.35;;;2.50;;
27957;SDS011;15295;42.658;23.374;2023-03-01T11:16:27;10.80;;;3.08;;
27957;SDS011;15295;42.658;23.374;2023-03-01T11:21:34;4.10;;;2.88;;
27957;SDS011;15295;42.658;23.374;2023-03-01T11:24:06;3.40;;;2.60;;
27957;SDS011;15295;42.658;23.374;2023-03-01T11:26:38;4.47;;;2.88;;
27957;SDS011;15295;42.658;23.374;2023-03-01T11:29:11;5.30;;;3.20;;
27957;SDS011;15295;42.658;23.374;2023-03-01T11:31:43;5.03;;;3.50;;
27957;SDS011;15295;42.658;23.374;2023-03-01T11:34:12;4.15;;;2.92;;
27957;SDS011;15295;42.658;23.374;2023-03-01T11:36:46;4.65;;;2.80;;
27957;SDS011;15295;42.658;23.374;2023-03-01T11:39:27;7.75;;;3.15;;
27957;SDS011;15295;42.658;23.374;2023-03-01T11:42:01;6.45;;;3.33;;
27957;SDS011;15295;42.658;23.374;2023-03-01T11:44:35;4.93;;;3.60;;
27957;SDS011;15295;42.658;23.374;2023-03-01T11:47:15;6.20;;;4.13;;
27957;SDS011;15295;42.658;23.374;2023-03-01T11:49:50;5.78;;;3.83;;
27957;SDS011;15295;42.658;23.374;2023-03-01T11:53:10;4.72;;;3.38;;
27957;SDS011;15295;42.658;23.374;2023-03-01T12:01:01;8.30;;;5.35;;
27957;SDS011;15295;42.658;23.374;2023-03-01T12:06:16;8.95;;;5.80;;
27957;SDS011;15295;42.658;23.374;2023-03-01T12:11:39;8.43;;;5.40;;
27957;SDS011;15295;42.658;23.374;2023-03-01T12:17:10;6.57;;;4.70;;
27957;SDS011;15295;42.658;23.374;2023-03-01T12:20:00;8.13;;;4.65;;
27957;SDS011;15295;42.658;23.374;2023-03-01T12:22:32;6.72;;;4.47;;
27957;SDS011;15295;42.658;23.374;2023-03-01T12:46:48;8.23;;;5.35;;
27957;SDS011;15295;42.658;23.374;2023-03-01T12:49:39;6.97;;;4.85;;
27957;SDS011;15295;42.658;23.374;2023-03-01T12:54:47;5.93;;;4.72;;
27957;SDS011;15295;42.658;23.374;2023-03-01T12:57:37;6.57;;;4.95;;
27957;SDS011;15295;42.658;23.374;2023-03-01T13:08:47;7.63;;;4.68;;
27957;SDS011;15295;42.658;23.374;2023-03-01T13:11:23;7.03;;;5.10;;
27957;SDS011;15295;42.658;23.374;2023-03-01T13:13:49;6.88;;;4.85;;
27957;SDS011;15295;42.658;23.374;2023-03-01T13:16:41;5.05;;;3.90;;
27957;SDS011;15295;42.658;23.374;2023-03-01T13:19:13;5.13;;;3.80;;
27957;SDS011;15295;42.658;23.374;2023-03-01T13:21:39;6.00;;;4.30;;
27957;SDS011;15295;42.658;23.374;2023-03-01T13:24:22;6.85;;;4.03;;
27957;SDS011;15295;42.658;23.374;2023-03-01T13:29:56;6.30;;;3.72;;
27957;SDS011;15295;42.658;23.374;2023-03-01T13:32:35;6.95;;;3.90;;
27957;SDS011;15295;42.658;23.374;2023-03-01T13:37:40;6.00;;;3.70;;
27957;SDS011;15295;42.658;23.374;2023-03-01T13:42:42;6.90;;;3.92;;
27957;SDS011;15295;42.658;23.374;2023-03-01T13:45:53;5.68;;;4.10;;
27957;SDS011;15295;42.658;23.374;2023-03-01T13:48:18;5.38;;;3.53;;
27957;SDS011;15295;42.658;23.374;2023-03-01T13:50:58;6.53;;;4.60;;
27957;SDS011;15295;42.658;23.374;2023-03-01T13:53:28;6.57;;;4.22;;
27957;SDS011;15295;42.658;23.374;2023-03-01T13:56:07;8.18;;;4.68;;
27957;SDS011;15295;42.658;23.374;2023-03-01T14:01:23;7.07;;;4.38;;
27957;SDS011;15295;42.658;23.374;2023-03-01T14:03:51;7.40;;;4.75;;
27957;SDS011;15295;42.658;23.374;2023-03-01T14:06:29;6.65;;;4.35;;
27957;SDS011;15295;42.658;23.374;2023-03-01T14:14:45;6.03;;;3.85;;
27957;SDS011;15295;42.658;23.374;2023-03-01T14:19:55;7.82;;;3.50;;
27957;SDS011;15295;42.658;23.374;2023-03-01T14:22:28;6.15;;;3.40;;
27957;SDS011;15295;42.658;23.374;2023-03-01T14:25:03;7.07;;;3.75;;
27957;SDS011;15295;42.658;23.374;2023-03-01T14:27:38;8.73;;;4.15;;
27957;SDS011;15295;42.658;23.374;2023-03-01T14:30:19;6.82;;;3.45;;
27957;SDS011;15295;42.658;23.374;2023-03-01T14:32:52;4.90;;;3.20;;
27957;SDS011;15295;42.658;23.374;2023-03-01T14:35:23;7.97;;;3.20;;
27957;SDS011;15295;42.658;23.374;2023-03-01T14:37:54;8.52;;;3.10;;
27957;SDS011;15295;42.658;23.374;2023-03-01T14:40:53;7.32;;;3.33;;
27957;SDS011;15295;42.658;23.374;2023-03-01T14:43:15;6.75;;;3.42;;
27957;SDS011;15295;42.658;23.374;2023-03-01T14:45:47;5.30;;;2.92;;
27957;SDS011;15295;42.658;23.374;2023-03-01T14:48:14;7.93;;;3.40;;
27957;SDS011;15295;42.658;23.374;2023-03-01T14:50:41;6.50;;;3.28;;
27957;SDS011;15295;42.658;23.374;2023-03-01T14:53:13;5.68;;;3.08;;
27957;SDS011;15295;42.658;23.374;2023-03-01T14:55:51;7.07;;;3.55;;
27957;SDS011;15295;42.658;23.374;2023-03-01T14:58:21;6.43;;;3.10;;
27957;SDS011;15295;42.658;23.374;2023-03-01T15:00:54;9.80;;;3.45;;
27957;SDS011;15295;42.658;23.374;2023-03-01T15:03:27;7.85;;;3.45;;
27957;SDS011;15295;42.658;23.374;2023-03-01T15:06:07;5.43;;;3.03;;
27957;SDS011;15295;42.658;23.374;2023-03-01T15:08:37;6.63;;;3.17;;
27957;SDS011;15295;42.658;23.374;2023-03-01T15:13:39;8.18;;;3.60;;
27957;SDS011;15295;42.658;23.374;2023-03-01T15:16:10;14.75;;;4.47;;
27957;SDS011;15295;42.658;23.374;2023-03-01T15:18:37;7.72;;;4.20;;
27957;SDS011;15295;42.658;23.374;2023-03-01T15:21:19;10.77;;;4.35;;
27957;SDS011;15295;42.658;23.374;2023-03-01T15:23:51;10.65;;;4.80;;
27957;SDS011;15295;42.658;23.374;2023-03-01T15:26:24;8.23;;;4.47;;
27957;SDS011;15295;42.658;23.374;2023-03-01T15:28:55;9.98;;;5.68;;
27957;SDS011;15295;42.658;23.374;2023-03-01T15:31:34;10.15;;;5.18;;
27957;SDS011;15295;42.658;23.374;2023-03-01T15:36:50;7.45;;;5.15;;
27957;SDS011;15295;42.658;23.374;2023-03-01T15:39:38;9.95;;;5.18;;
27957;SDS011;15295;42.658;23.374;2023-03-01T15:45:06;11.82;;;4.20;;
27957;SDS011;15295;42.658;23.374;2023-03-01T15:47:50;13.25;;;5.55;;
27957;SDS011;15295;42.658;23.374;2023-03-01T15:52:52;8.23;;;5.10;;
27957;SDS011;15295;42.658;23.374;2023-03-01T15:55:19;11.85;;;6.38;;
27957;SDS011;15295;42.658;23.374;2023-03-01T16:00:47;11.38;;;5.88;;
27957;SDS011;15295;42.658;23.374;2023-03-01T16:03:15;12.90;;;6.68;;
27957;SDS011;15295;42.658;23.374;2023-03-01T16:05:46;10.98;;;6.43;;
27957;SDS011;15295;42.658;23.374;2023-03-01T16:08:16;11.07;;;5.20;;
27957;SDS011;15295;42.658;23.374;2023-03-01T16:10:43;11.48;;;6.13;;
27957;SDS011;15295;42.658;23.374;2023-03-01T16:13:09;8.35;;;5.20;;
27957;SDS011;15295;42.658;23.374;2023-03-01T16:15:40;7.72;;;4.80;;
27957;SDS011;15295;42.658;23.374;2023-03-01T16:18:06;10.35;;;5.35;;
27957;SDS011;15295;42.658;23.374;2023-03-01T16:20:33;10.10;;;5.88;;
27957;SDS011;15295;42.658;23.374;2023-03-01T16:23:03;8.30;;;4.85;;
27957;SDS011;15295;42.658;23.374;2023-03-01T16:25:31;9.60;;;5.32;;
27957;SDS011;15295;42.658;23.374;2023-03-01T16:27:57;8.55;;;5.07;;
27957;SDS011;15295;42.658;23.374;2023-03-01T16:30:25;8.10;;;4.70;;
27957;SDS011;15295;42.658;23.374;2023-03-01T16:32:51;9.88;;;4.88;;
27957;SDS011;15295;42.658;23.374;2023-03-01T16:35:18;10.10;;;5.55;;
27957;SDS011;15295;42.658;23.374;2023-03-01T16:37:46;9.40;;;4.63;;
27957;SDS011;15295;42.658;23.374;2023-03-01T16:40:18;9.35;;;5.00;;
27957;SDS011;15295;42.658;23.374;2023-03-01T16:42:45;9.98;;;5.25;;
27957;SDS011;15295;42.658;23.374;2023-03-01T16:45:12;10.73;;;4.25;;
27957;SDS011;15295;42.658;23.374;2023-03-01T16:47:37;8.13;;;4.50;;
27957;SDS011;15295;42.658;23.374;2023-03-01T16:50:04;12.68;;;6.25;;
27957;SDS011;15295;42.658;23.374;2023-03-01T16:52:32;11.27;;;5.72;;
27957;SDS011;15295;42.658;23.374;2023-03-01T16:55:02;10.88;;;5.32;;
27957;SDS011;15295;42.658;23.374;2023-03-01T16:57:28;9.02;;;5.03;;
27957;SDS011;15295;42.658;23.374;2023-03-01T16:59:55;10.57;;;5.55;;
27957;SDS011;15295;42.658;23.374;2023-03-01T17:02:20;10.05;;;5.88;;
27957;SDS011;15295;42.658;23.374;2023-03-01T17:04:53;7.38;;;4.50;;
27957;SDS011;15295;42.658;23.374;2023-03-01T17:07:20;14.77;;;4.80;;
27957;SDS011;15295;42.658;23.374;2023-03-01T17:09:46;12.73;;;4.93;;
27957;SDS011;15295;42.658;23.374;2023-03-01T17:12:14;9.07;;;4.80;;
27957;SDS011;15295;42.658;23.374;2023-03-01T17:14:45;7.38;;;4.38;;
27957;SDS011;15295;42.658;23.374;2023-03-01T17:17:11;7.75;;;4.55;;
27957;SDS011;15295;42.658;23.374;2023-03-01T17:22:26;12.10;;;5.13;;
27957;SDS011;15295;42.658;23.374;2023-03-01T17:24:51;9.15;;;5.07;;
27957;SDS011;15295;42.658;23.374;2023-03-01T17:27:17;10.13;;;5.88;;
27957;SDS011;15295;42.658;23.374;2023-03-01T17:29:43;10.68;;;6.32;;
27957;SDS011;15295;42.658;23.374;2023-03-01T17:32:09;12.57;;;5.75;;
27957;SDS011;15295;42.658;23.374;2023-03-01T17:34:37;16.42;;;7.80;;
27957;SDS011;15295;42.658;23.374;2023-03-01T17:37:07;15.48;;;7.68;;